This is the latest recevied weather packets stored in our database for station/object 2E1HJE-10. If no packets are shown the sender has not sent any weather packets the latest 10 day(s).
| Time | Temp. | Humidity | Pressure | Rain* | Wind** | Luminosity | Snow |
|---|---|---|---|---|---|---|---|
| 1777540107 | 15° C | 44% | 1023.6 hPa | 0 mm | - | - | - |
| 1777538907 | 14.44° C | 45% | 1023.7 hPa | 0 mm | - | - | - |
| 1777538308 | 14.44° C | 45% | 1023.7 hPa | 0 mm | - | - | - |
| 1777537707 | 13.89° C | 45% | 1023.7 hPa | 0 mm | - | - | - |
| 1777537107 | 13.89° C | 45% | 1023.7 hPa | 0 mm | - | - | - |
| 1777536507 | 13.33° C | 45% | 1023.7 hPa | 0 mm | - | - | - |
| 1777535907 | 13.33° C | 50% | 1023.7 hPa | 0 mm | - | - | - |
| 1777535309 | 13.33° C | 52% | 1023.5 hPa | 0 mm | - | - | - |
| 1777534707 | 13.33° C | 52% | 1023.5 hPa | 0 mm | - | - | - |
| 1777534108 | 12.78° C | 52% | 1023.5 hPa | 0 mm | - | - | - |
| 1777533508 | 12.78° C | 52% | 1023.5 hPa | 0 mm | - | - | - |
| 1777532307 | 12.22° C | 61% | 1023.4 hPa | 0 mm | - | - | - |
| 1777531707 | 12.22° C | 61% | 1023.4 hPa | 0 mm | - | - | - |
| 1777531107 | 11.67° C | 61% | 1023.4 hPa | 0 mm | - | - | - |
| 1777530507 | 11.11° C | 61% | 1023.4 hPa | 0 mm | - | - | - |
| 1777529907 | 11.11° C | 62% | 1023.5 hPa | 0 mm | - | - | - |
| 1777529307 | 10.56° C | 62% | 1023.5 hPa | 0 mm | - | - | - |
| 1777528708 | 10° C | 69% | 1023.2 hPa | 0 mm | - | - | - |
| 1777528107 | 10° C | 69% | 1023.2 hPa | 0 mm | - | - | - |
| 1777527507 | 9.44° C | 69% | 1023.2 hPa | 0 mm | - | - | - |
| 1777526909 | 9.44° C | 69% | 1023.2 hPa | 0 mm | - | - | - |
| 1777526308 | 9.44° C | 69% | 1023.4 hPa | 0 mm | - | - | - |
| 1777525707 | 8.89° C | 69% | 1023.4 hPa | 0 mm | - | - | - |
| 1777525108 | 8.89° C | 69% | 1023.4 hPa | 0 mm | - | - | - |
| 1777524507 | 8.89° C | 69% | 1023.4 hPa | 0 mm | - | - | - |
* Rain latest hour (hover to see other rain measurements)
** Current wind speed in m/s (hover to see current wind gust speed)